Grootmis, South Africa
Current Conditions -  °F | °C
As of 3:00 AM on Monday 24 Nov 2014 (Local Time) from FAUP Reporting Station
Clear Clear  
Wind Chill: 64°   Ceiling: Unl
Heat Index: 64°   Visibility: 6mi
Dew Point: 37°   Wind: 6mph
Humidity: 37%   Direction: 200°SSW
Pressure: 30"   Gusts: NA
Location:  29.65°S, 17.08°E
Report Text: FAUP 240100Z 20005KT CAVOK 18/03 Q1016 NOSIG
Loading
Personal Weather Stations






























Interactive Weather Map New forecast layout! Learn more

10-Day Weather Forecast

Advertisements
Track Severe Weather on mobile